Calico Rock, Arkansas
Current Conditions -  °F | °C
As of 9:53 AM on Friday 21 Nov 2014 (Local Time) from KBPK Reporting Station
Overcast Overcast  
Wind Chill: 36°   Ceiling: 1700
Heat Index: 41°   Visibility: 9mi
Dew Point: 31°   Wind: 8mph
Humidity: 67%   Direction: 100°E
Pressure: 30.3"   Gusts: 18mph
Location:  36.12°N, 92.14°W
Report Text: KBPK 211553Z AUTO 10007G16KT 9SM OVC017 05/M01 A3030 RMK AO2 SLP265 T00501006
Loading
Personal Weather Stations






























Interactive Weather Map New forecast layout! Learn more

10-Day Weather Forecast

Advertisements
Track Severe Weather on mobile